Time;durP1;ratioP1;P1;durP2;ratioP2;P2;SDS_P1;SDS_P2;PMS_P1;PMS_P2;Temp;Humidity;BMP_temperature;BMP_pressure;BME280_temperature;BME280_humidity;BME280_pressure;Samples;Min_cycle;Max_cycle;Signal;HPM_P1;HPM_P2
2023/10/11 00:01:46;;;;;;;13.00;5.50;;;;;;;;;;5070741;28;20032;-62
2023/10/11 00:04:23;;;;;;;13.77;6.40;;;;;;;;;;5072842;28;20511;-61
2023/10/11 00:06:49;;;;;;;16.97;5.73;;;;;;;;;;5070846;28;20438;-61
2023/10/11 00:09:16;;;;;;;11.35;6.68;;;;;;;;;;5072257;28;20029;-70
2023/10/11 00:11:41;;;;;;;16.90;5.80;;;;;;;;;;5051345;28;20044;-62
2023/10/11 00:14:07;;;;;;;8.30;5.97;;;;;;;;;;5052334;28;20035;-62
2023/10/11 00:16:35;;;;;;;16.30;6.78;;;;;;;;;;5064764;28;20036;-62
2023/10/11 00:19:00;;;;;;;13.43;6.10;;;;;;;;;;5071808;28;20020;-61
2023/10/11 00:21:40;;;;;;;8.13;5.40;;;;;;;;;;5070714;28;20040;-62
2023/10/11 00:24:07;;;;;;;22.98;7.65;;;;;;;;;;5072076;28;20028;-62
2023/10/11 00:26:34;;;;;;;12.75;5.60;;;;;;;;;;5070671;28;20173;-62
2023/10/11 00:29:00;;;;;;;7.72;5.70;;;;;;;;;;5072151;28;20059;-61
2023/10/11 00:31:25;;;;;;;11.68;6.70;;;;;;;;;;5070235;28;20063;-61
2023/10/11 00:33:53;;;;;;;19.63;7.05;;;;;;;;;;5023454;28;1035870;-61
2023/10/11 00:36:29;;;;;;;14.13;9.13;;;;;;;;;;5065115;28;20040;-61
2023/10/11 00:38:54;;;;;;;7.85;6.55;;;;;;;;;;5072935;28;20964;-61
2023/10/11 00:41:19;;;;;;;8.10;5.78;;;;;;;;;;5071568;28;20047;-61
2023/10/11 00:43:52;;;;;;;10.90;6.83;;;;;;;;;;5073000;28;20016;-60
2023/10/11 00:46:22;;;;;;;7.57;5.95;;;;;;;;;;5071291;28;20439;-60
2023/10/11 00:51:32;;;;;;;12.18;5.38;;;;;;;;;;5071778;28;20102;-60
2023/10/11 00:54:02;;;;;;;17.90;6.88;;;;;;;;;;5072550;28;20063;-60
2023/10/11 00:56:31;;;;;;;10.85;7.90;;;;;;;;;;5071373;28;20103;-61
2023/10/11 00:58:57;;;;;;;9.23;7.22;;;;;;;;;;5062255;28;20151;-61
2023/10/11 01:01:23;;;;;;;13.88;7.03;;;;;;;;;;5059343;28;20032;-61
2023/10/11 01:03:48;;;;;;;16.88;6.55;;;;;;;;;;5047401;28;20037;-61
2023/10/11 01:06:13;;;;;;;14.95;7.72;;;;;;;;;;5063917;28;20037;-61
2023/10/11 01:08:39;;;;;;;7.15;5.28;;;;;;;;;;5072474;28;20020;-61
2023/10/11 01:11:09;;;;;;;12.57;5.95;;;;;;;;;;5070941;28;20060;-61
2023/10/11 01:13:38;;;;;;;10.98;6.03;;;;;;;;;;5072761;28;20020;-61
2023/10/11 01:16:05;;;;;;;10.35;6.93;;;;;;;;;;5070762;28;20034;-61
2023/10/11 01:18:31;;;;;;;12.43;5.55;;;;;;;;;;5072804;28;20017;-62
2023/10/11 01:20:56;;;;;;;24.08;7.20;;;;;;;;;;5070775;28;20040;-62
2023/10/11 01:23:21;;;;;;;10.63;5.80;;;;;;;;;;5072169;28;20023;-62
2023/10/11 01:25:46;;;;;;;15.70;7.88;;;;;;;;;;5070492;28;20518;-61
2023/10/11 01:28:11;;;;;;;12.30;6.07;;;;;;;;;;5072403;28;20436;-61
2023/10/11 01:30:37;;;;;;;8.57;5.47;;;;;;;;;;5070545;28;20052;-61
2023/10/11 01:33:05;;;;;;;50.08;7.53;;;;;;;;;;5050936;28;20037;-61
2023/10/11 01:35:36;;;;;;;13.20;5.57;;;;;;;;;;5037275;28;20076;-71
2023/10/11 01:38:04;;;;;;;14.13;6.43;;;;;;;;;;5058229;28;20039;-61
2023/10/11 01:40:31;;;;;;;9.93;6.43;;;;;;;;;;5070923;28;20039;-61
2023/10/11 01:42:57;;;;;;;9.55;6.63;;;;;;;;;;5071920;28;20025;-61
2023/10/11 01:45:25;;;;;;;12.88;7.30;;;;;;;;;;5070620;28;20037;-61
2023/10/11 01:47:56;;;;;;;9.60;6.57;;;;;;;;;;5071286;28;20023;-61
2023/10/11 01:50:21;;;;;;;15.63;6.53;;;;;;;;;;5070149;28;20436;-61
2023/10/11 01:52:47;;;;;;;12.53;5.80;;;;;;;;;;5071285;28;20130;-60
2023/10/11 01:55:13;;;;;;;9.63;6.60;;;;;;;;;;5070758;28;20458;-60
2023/10/11 01:57:39;;;;;;;11.50;7.72;;;;;;;;;;5071916;28;20021;-60
2023/10/11 02:00:13;;;;;;;10.65;6.55;;;;;;;;;;5068968;28;20493;-60
2023/10/11 02:02:44;;;;;;;11.77;6.25;;;;;;;;;;5071931;28;20428;-60
2023/10/11 02:05:10;;;;;;;12.18;7.07;;;;;;;;;;5070150;28;20032;-60
2023/10/11 02:07:35;;;;;;;8.93;6.13;;;;;;;;;;5071495;28;20017;-60
2023/10/11 02:10:03;;;;;;;10.90;6.70;;;;;;;;;;5069402;28;20059;-59
2023/10/11 02:12:28;;;;;;;11.75;5.60;;;;;;;;;;5071359;28;20758;-60
2023/10/11 02:14:53;;;;;;;11.23;5.45;;;;;;;;;;5069282;28;20020;-60
2023/10/11 02:17:23;;;;;;;12.27;6.40;;;;;;;;;;5071739;28;20488;-67
2023/10/11 02:19:48;;;;;;;12.63;6.57;;;;;;;;;;5069863;28;20032;-59
2023/10/11 02:22:13;;;;;;;8.85;7.38;;;;;;;;;;5071379;28;20008;-60
2023/10/11 02:24:39;;;;;;;14.55;6.57;;;;;;;;;;5071427;28;20029;-60
2023/10/11 02:27:06;;;;;;;8.40;5.17;;;;;;;;;;5069529;28;20062;-60
2023/10/11 02:29:31;;;;;;;10.57;5.70;;;;;;;;;;5070859;28;20520;-60
2023/10/11 02:31:58;;;;;;;13.13;6.50;;;;;;;;;;5069130;28;20041;-60
2023/10/11 02:34:23;;;;;;;12.00;7.32;;;;;;;;;;5070877;28;20158;-60
2023/10/11 02:36:56;;;;;;;14.63;8.80;;;;;;;;;;5069138;28;20116;-60
2023/10/11 02:39:21;;;;;;;11.82;6.90;;;;;;;;;;5059712;28;20440;-60
2023/10/11 02:41:55;;;;;;;17.88;7.80;;;;;;;;;;5066748;28;20530;-60
2023/10/11 02:44:22;;;;;;;13.73;5.88;;;;;;;;;;5070815;28;20017;-61
2023/10/11 02:46:48;;;;;;;12.90;8.30;;;;;;;;;;5047255;28;20040;-61
2023/10/11 02:49:20;;;;;;;23.05;7.50;;;;;;;;;;5051330;28;20036;-61
2023/10/11 02:51:52;;;;;;;16.55;9.13;;;;;;;;;;5065927;28;20086;-61
2023/10/11 02:54:18;;;;;;;9.10;7.00;;;;;;;;;;5070883;28;20116;-60
2023/10/11 02:56:46;;;;;;;8.95;5.82;;;;;;;;;;5069292;28;20123;-60
2023/10/11 02:59:11;;;;;;;;;;;;;;;;;;5071005;28;20059;-64
2023/10/11 03:01:38;;;;;;;11.00;7.88;;;;;;;;;;5068985;28;19947;-60
2023/10/11 03:04:07;;;;;;;9.43;6.43;;;;;;;;;;5070571;28;20389;-60
2023/10/11 03:06:35;;;;;;;15.00;7.55;;;;;;;;;;5068586;28;20045;-61
2023/10/11 03:09:01;;;;;;;14.95;6.57;;;;;;;;;;5070709;28;20414;-60
2023/10/11 03:11:29;;;;;;;10.38;6.43;;;;;;;;;;5053959;28;20037;-61
2023/10/11 03:13:55;;;;;;;18.23;8.18;;;;;;;;;;5044350;28;20029;-63
2023/10/11 03:16:23;;;;;;;10.25;7.13;;;;;;;;;;5048590;28;20036;-60
2023/10/11 03:18:50;;;;;;;;;;;;;;;;;;5070970;28;20480;-60
2023/10/11 03:21:16;;;;;;;12.48;7.18;;;;;;;;;;5067772;28;19913;-60
2023/10/11 03:23:45;;;;;;;12.27;7.63;;;;;;;;;;5051786;28;20021;-60
2023/10/11 03:26:23;;;;;;;11.90;5.95;;;;;;;;;;5069246;28;20044;-60
2023/10/11 03:28:58;;;;;;;15.50;8.13;;;;;;;;;;5069878;28;20029;-58
2023/10/11 03:31:28;;;;;;;18.73;7.57;;;;;;;;;;5068181;28;20489;-59
2023/10/11 03:33:57;;;;;;;7.80;6.35;;;;;;;;;;5069677;28;20073;-59
2023/10/11 03:36:28;;;;;;;15.68;8.90;;;;;;;;;;5068894;28;20029;-59
2023/10/11 03:38:54;;;;;;;13.75;7.25;;;;;;;;;;5070265;28;20487;-59
2023/10/11 03:41:28;;;;;;;13.95;7.88;;;;;;;;;;5055229;28;20037;-59
2023/10/11 03:43:54;;;;;;;11.50;6.43;;;;;;;;;;5061354;28;20028;-59
2023/10/11 03:46:24;;;;;;;9.50;6.93;;;;;;;;;;5065288;28;20542;-59
2023/10/11 03:48:51;;;;;;;12.88;7.55;;;;;;;;;;5047804;28;20036;-62
2023/10/11 03:51:19;;;;;;;15.98;5.65;;;;;;;;;;5060543;28;20078;-59
2023/10/11 03:53:46;;;;;;;15.60;6.65;;;;;;;;;;5069588;28;20021;-59
2023/10/11 03:56:11;;;;;;;16.83;7.85;;;;;;;;;;5068580;28;20044;-59
2023/10/11 03:58:37;;;;;;;15.40;8.88;;;;;;;;;;5069909;28;20012;-60
2023/10/11 04:03:40;;;;;;;11.93;7.88;;;;;;;;;;5070168;28;20021;-59
2023/10/11 04:06:13;;;;;;;12.77;6.10;;;;;;;;;;5067962;28;20120;-59
2023/10/11 04:08:41;;;;;;;12.90;6.47;;;;;;;;;;5070109;28;20476;-59
2023/10/11 04:11:14;;;;;;;12.23;6.25;;;;;;;;;;5068656;28;20094;-60
2023/10/11 04:13:41;;;;;;;11.93;9.18;;;;;;;;;;5070091;28;20020;-69
2023/10/11 04:16:07;;;;;;;12.75;8.63;;;;;;;;;;5068448;28;20119;-60
2023/10/11 04:18:33;;;;;;;13.07;8.73;;;;;;;;;;5070233;28;20038;-60
2023/10/11 04:23:36;;;;;;;14.50;8.57;;;;;;;;;;5070419;28;20056;-60
2023/10/11 04:26:07;;;;;;;43.15;11.30;;;;;;;;;;5068353;28;20554;-60
2023/10/11 04:28:33;;;;;;;11.30;7.97;;;;;;;;;;5069934;28;20095;-60
2023/10/11 04:31:31;;;;;;;16.33;8.90;;;;;;;;;;5068366;28;20120;-60
2023/10/11 04:33:50;;;;;;;17.40;9.10;;;;;;;;;;5070380;28;21005;-60
2023/10/11 04:36:20;;;;;;;18.70;8.63;;;;;;;;;;5071665;28;20381;-60
2023/10/11 04:38:47;;;;;;;12.43;9.13;;;;;;;;;;5073605;28;20028;-60
2023/10/11 04:41:15;;;;;;;16.20;9.23;;;;;;;;;;5071862;28;20029;-61
2023/10/11 04:43:50;;;;;;;15.18;9.10;;;;;;;;;;5073299;28;20027;-60
2023/10/11 04:46:16;;;;;;;15.00;9.73;;;;;;;;;;5071915;28;20478;-60
2023/10/11 04:48:41;;;;;;;17.83;9.63;;;;;;;;;;5073611;28;20028;-59
2023/10/11 04:51:21;;;;;;;24.90;10.03;;;;;;;;;;5071223;28;20032;-60
2023/10/11 04:53:58;;;;;;;13.20;9.00;;;;;;;;;;5073152;28;20034;-60
2023/10/11 04:59:11;;;;;;;10.05;7.60;;;;;;;;;;5073146;28;20421;-60
2023/10/11 05:04:14;;;;;;;12.18;8.68;;;;;;;;;;5072987;28;20365;-60
2023/10/11 05:06:40;;;;;;;19.05;9.88;;;;;;;;;;5071076;28;20403;-61
2023/10/11 05:11:53;;;;;;;15.02;7.72;;;;;;;;;;5047351;28;20044;-60
2023/10/11 05:22:48;;;;;;;14.68;8.70;;;;;;;;;;5071493;28;20055;-59
2023/10/11 05:27:49;;;;;;;9.57;7.57;;;;;;;;;;5071944;28;20028;-59
2023/10/11 05:30:28;;;;;;;12.77;8.02;;;;;;;;;;5071312;28;20450;-59
2023/10/11 05:52:15;;;;;;;12.20;8.55;;;;;;;;;;5070547;28;20059;-59
2023/10/11 05:54:41;;;;;;;14.80;8.07;;;;;;;;;;5072061;28;20459;-59
2023/10/11 05:57:06;;;;;;;17.88;8.80;;;;;;;;;;5069824;28;20029;-59
2023/10/11 05:59:32;;;;;;;11.07;8.17;;;;;;;;;;5071852;28;20043;-61
2023/10/11 06:01:57;;;;;;;11.70;8.18;;;;;;;;;;5070307;28;20545;-59
2023/10/11 06:04:23;;;;;;;15.43;10.07;;;;;;;;;;5071352;28;20021;-60
2023/10/11 06:06:52;;;;;;;11.63;8.18;;;;;;;;;;5069786;28;20040;-60
2023/10/11 06:09:17;;;;;;;9.90;8.82;;;;;;;;;;5071987;28;20027;-62
2023/10/11 06:11:48;;;;;;;13.45;9.77;;;;;;;;;;5069498;28;20207;-59
2023/10/11 06:14:16;;;;;;;14.00;8.07;;;;;;;;;;5071641;28;20111;-59
2023/10/11 06:16:43;;;;;;;21.75;9.57;;;;;;;;;;5070208;28;20037;-59
2023/10/11 06:19:18;;;;;;;21.05;9.68;;;;;;;;;;5071198;28;20099;-59
2023/10/11 06:21:56;;;;;;;12.68;7.75;;;;;;;;;;5069628;28;20033;-59
2023/10/11 06:24:22;;;;;;;13.35;8.35;;;;;;;;;;5071855;28;20120;-58
2023/10/11 06:29:15;;;;;;;21.43;10.70;;;;;;;;;;5056313;28;20082;-58
2023/10/11 06:31:43;;;;;;;;;;;;;;;;;;5050298;28;20052;-58
2023/10/11 06:34:15;;;;;;;16.40;7.82;;;;;;;;;;5050832;28;19928;-58
2023/10/11 06:36:49;;;;;;;12.80;9.30;;;;;;;;;;5049713;28;20040;-59
2023/10/11 06:42:12;;;;;;;13.02;8.00;;;;;;;;;;5037750;28;20431;-59
2023/10/11 06:44:38;;;;;;;15.50;9.65;;;;;;;;;;5051379;28;20035;-59
2023/10/11 06:47:04;;;;;;;15.30;9.18;;;;;;;;;;5049218;28;20040;-58
2023/10/11 06:49:44;;;;;;;15.52;9.25;;;;;;;;;;5050723;28;20020;-58
2023/10/11 06:52:15;;;;;;;13.52;7.82;;;;;;;;;;5049867;28;20037;-59
2023/10/11 06:54:46;;;;;;;15.38;7.55;;;;;;;;;;5050951;28;20396;-58
2023/10/11 06:57:12;;;;;;;13.00;8.40;;;;;;;;;;5048889;28;20369;-58
2023/10/11 06:59:41;;;;;;;12.40;8.50;;;;;;;;;;5049745;28;20017;-58
2023/10/11 07:02:17;;;;;;;18.30;10.75;;;;;;;;;;5047849;28;20392;-58
2023/10/11 07:04:50;;;;;;;21.50;9.60;;;;;;;;;;5046861;28;20036;-58
2023/10/11 07:07:15;;;;;;;15.05;10.02;;;;;;;;;;5048817;28;20147;-59
2023/10/11 07:09:41;;;;;;;23.17;8.10;;;;;;;;;;5049090;28;20485;-58
2023/10/11 07:12:28;;;;;;;17.38;8.88;;;;;;;;;;5049172;28;20086;-58
2023/10/11 07:14:54;;;;;;;11.13;8.00;;;;;;;;;;5054765;28;20017;-60
2023/10/11 07:17:21;;;;;;;15.50;8.63;;;;;;;;;;5047719;28;20070;-58
2023/10/11 07:19:50;;;;;;;16.05;10.10;;;;;;;;;;5048563;28;20017;-59
2023/10/11 07:22:18;;;;;;;15.98;8.80;;;;;;;;;;5050663;28;20024;-58
2023/10/11 07:24:44;;;;;;;15.38;9.80;;;;;;;;;;5049002;28;20387;-59
2023/10/11 07:27:09;;;;;;;16.90;9.93;;;;;;;;;;5049876;28;20021;-59
2023/10/11 07:29:42;;;;;;;13.63;9.15;;;;;;;;;;5050597;28;20442;-59
2023/10/11 07:32:09;;;;;;;15.13;9.05;;;;;;;;;;5051934;28;20045;-59
2023/10/11 07:34:36;;;;;;;14.27;9.57;;;;;;;;;;5070343;28;20067;-59
2023/10/11 07:37:04;;;;;;;16.45;7.78;;;;;;;;;;5068667;28;20040;-57
2023/10/11 07:39:33;;;;;;;14.43;10.48;;;;;;;;;;5070480;28;20028;-58
2023/10/11 07:42:08;;;;;;;18.13;11.45;;;;;;;;;;5068216;28;20052;-58
2023/10/11 07:44:37;;;;;;;13.98;8.43;;;;;;;;;;5070175;28;20092;-58
2023/10/11 07:47:15;;;;;;;18.20;10.02;;;;;;;;;;5048744;28;20111;-58
2023/10/11 07:49:41;;;;;;;25.10;9.00;;;;;;;;;;5048853;28;20025;-58
2023/10/11 07:52:10;;;;;;;13.70;8.18;;;;;;;;;;5048648;28;20033;-60
2023/10/11 07:54:36;;;;;;;14.45;10.10;;;;;;;;;;5050325;28;20021;-66
2023/10/11 07:57:02;;;;;;;15.52;8.50;;;;;;;;;;5048329;28;20033;-58
2023/10/11 07:59:28;;;;;;;17.40;9.88;;;;;;;;;;5050454;28;20025;-58
2023/10/11 08:01:54;;;;;;;18.33;9.63;;;;;;;;;;5047460;28;20452;-59
2023/10/11 08:04:21;;;;;;;22.98;9.77;;;;;;;;;;5048759;28;20029;-58
2023/10/11 08:06:51;;;;;;;17.83;9.82;;;;;;;;;;5047260;28;20048;-58
2023/10/11 08:09:19;;;;;;;11.73;8.88;;;;;;;;;;5051150;28;20048;-58
2023/10/11 08:11:57;;;;;;;20.00;10.40;;;;;;;;;;5050757;28;20048;-59
2023/10/11 08:14:28;;;;;;;21.67;9.07;;;;;;;;;;5053118;28;20029;-58
2023/10/11 08:16:53;;;;;;;14.40;10.55;;;;;;;;;;5052203;28;20029;-58
2023/10/11 08:19:18;;;;;;;14.20;10.07;;;;;;;;;;5053472;28;20013;-58
2023/10/11 08:21:54;;;;;;;18.23;9.77;;;;;;;;;;5052103;28;20443;-58
2023/10/11 08:24:24;;;;;;;16.55;11.80;;;;;;;;;;5054023;28;20025;-58
2023/10/11 08:26:52;;;;;;;16.90;9.48;;;;;;;;;;5051873;28;20033;-58
2023/10/11 08:29:27;;;;;;;15.57;9.85;;;;;;;;;;5053868;28;20017;-58
2023/10/11 08:31:53;;;;;;;18.63;12.25;;;;;;;;;;5051897;28;20029;-58
2023/10/11 08:34:18;;;;;;;12.00;9.40;;;;;;;;;;5052892;28;20048;-57
2023/10/11 08:36:43;;;;;;;12.33;9.43;;;;;;;;;;5051671;28;20116;-58
2023/10/11 08:39:09;;;;;;;15.00;10.67;;;;;;;;;;5053619;28;20503;-58
2023/10/11 08:41:34;;;;;;;21.70;11.02;;;;;;;;;;5051464;28;20543;-58
2023/10/11 08:44:08;;;;;;;17.17;9.95;;;;;;;;;;5053196;28;20017;-59
2023/10/11 08:46:36;;;;;;;17.52;9.88;;;;;;;;;;5051831;28;20033;-58
2023/10/11 08:49:01;;;;;;;14.27;11.02;;;;;;;;;;5051446;28;20468;-59
2023/10/11 08:51:36;;;;;;;22.43;11.67;;;;;;;;;;5051663;28;20041;-58
2023/10/11 08:54:01;;;;;;;15.23;10.57;;;;;;;;;;5052711;28;20033;-58
2023/10/11 08:56:26;;;;;;;15.60;10.13;;;;;;;;;;5051440;28;20033;-58
2023/10/11 08:58:53;;;;;;;23.47;10.23;;;;;;;;;;5052870;28;20025;-58
2023/10/11 09:01:18;;;;;;;11.82;8.80;;;;;;;;;;5059075;28;20028;-58
2023/10/11 09:04:00;;;;;;;14.27;9.68;;;;;;;;;;5072127;28;20035;-58
2023/10/11 09:06:26;;;;;;;17.52;11.70;;;;;;;;;;5071598;28;20032;-59
2023/10/11 09:08:51;;;;;;;20.07;11.13;;;;;;;;;;5072787;28;20021;-58
2023/10/11 09:11:29;;;;;;;21.08;11.48;;;;;;;;;;5070907;28;20085;-58
2023/10/11 09:14:09;;;;;;;15.63;11.47;;;;;;;;;;5072816;28;20103;-58
2023/10/11 09:16:34;;;;;;;15.50;10.02;;;;;;;;;;5070872;28;20032;-59
2023/10/11 09:19:09;;;;;;;18.75;10.73;;;;;;;;;;5072446;28;20422;-58
2023/10/11 09:21:35;;;;;;;16.95;11.02;;;;;;;;;;5071521;28;20029;-58
2023/10/11 09:24:01;;;;;;;31.60;14.07;;;;;;;;;;5072354;28;20087;-58
2023/10/11 09:26:33;;;;;;;15.85;12.43;;;;;;;;;;5070937;28;20535;-58
2023/10/11 09:28:58;;;;;;;21.35;11.82;;;;;;;;;;5072334;28;20221;-58
2023/10/11 09:31:25;;;;;;;20.48;11.00;;;;;;;;;;5070796;28;20068;-58
2023/10/11 09:33:53;;;;;;;17.83;11.32;;;;;;;;;;5072283;28;20041;-58
2023/10/11 09:36:20;;;;;;;18.47;12.50;;;;;;;;;;5071183;28;20028;-58
2023/10/11 09:38:52;;;;;;;28.08;15.73;;;;;;;;;;5072024;28;20168;-59
2023/10/11 09:41:21;;;;;;;14.75;11.32;;;;;;;;;;5068707;28;20547;-58
2023/10/11 09:43:46;;;;;;;23.15;13.40;;;;;;;;;;5071698;28;20024;-58
2023/10/11 09:46:13;;;;;;;54.45;14.98;;;;;;;;;;5068169;28;20082;-60
2023/10/11 09:48:39;;;;;;;25.58;13.60;;;;;;;;;;5071810;28;20035;-58
2023/10/11 09:51:17;;;;;;;24.70;14.73;;;;;;;;;;5070462;28;20037;-58
2023/10/11 09:53:49;;;;;;;21.92;13.93;;;;;;;;;;5071974;28;20141;-59
2023/10/11 09:56:35;;;;;;;27.13;14.45;;;;;;;;;;5070756;28;20108;-58
2023/10/11 09:59:05;;;;;;;19.13;12.75;;;;;;;;;;5072087;28;20024;-59
2023/10/11 10:01:38;;;;;;;24.27;15.90;;;;;;;;;;5070201;28;20101;-58
2023/10/11 10:04:07;;;;;;;21.50;13.50;;;;;;;;;;5072030;28;20112;-61
2023/10/11 10:06:32;;;;;;;19.73;12.52;;;;;;;;;;5068785;28;20056;-59
2023/10/11 10:09:04;;;;;;;22.77;14.27;;;;;;;;;;5071233;28;20067;-58
2023/10/11 10:11:51;;;;;;;21.25;13.10;;;;;;;;;;5070318;28;20173;-58
2023/10/11 10:14:25;;;;;;;18.25;13.68;;;;;;;;;;5071478;28;20052;-59
2023/10/11 10:17:06;;;;;;;21.60;15.77;;;;;;;;;;5069498;28;20067;-59
2023/10/11 10:19:39;;;;;;;24.98;17.63;;;;;;;;;;5071821;28;20039;-58
2023/10/11 10:22:19;;;;;;;22.25;14.25;;;;;;;;;;5069884;28;20112;-58
2023/10/11 10:24:45;;;;;;;26.73;16.02;;;;;;;;;;5070890;28;20028;-58
2023/10/11 10:27:34;;;;;;;23.70;15.07;;;;;;;;;;5069920;28;20033;-58
2023/10/11 10:30:00;;;;;;;35.10;18.52;;;;;;;;;;5069701;28;20106;-59
2023/10/11 10:32:27;;;;;;;21.08;15.88;;;;;;;;;;5070424;28;20488;-58
2023/10/11 10:35:18;;;;;;;23.20;15.32;;;;;;;;;;5069330;28;20046;-59
2023/10/11 10:37:45;;;;;;;28.80;15.52;;;;;;;;;;5070749;28;20514;-59
2023/10/11 10:40:15;;;;;;;18.90;16.85;;;;;;;;;;5069713;28;20044;-59
2023/10/11 10:42:45;;;;;;;33.33;17.92;;;;;;;;;;5071095;28;20016;-59
2023/10/11 10:45:12;;;;;;;22.88;17.58;;;;;;;;;;5069698;28;20032;-59
2023/10/11 10:47:37;;;;;;;30.58;16.33;;;;;;;;;;5070739;28;20019;-59
2023/10/11 10:50:09;;;;;;;37.67;20.43;;;;;;;;;;5069462;28;20588;-59
2023/10/11 10:52:34;;;;;;;29.50;18.50;;;;;;;;;;5071160;28;20028;-59
2023/10/11 10:55:03;;;;;;;26.77;15.90;;;;;;;;;;5069034;28;20340;-72
2023/10/11 10:57:31;;;;;;;30.38;16.73;;;;;;;;;;5070911;28;20430;-59
2023/10/11 10:59:56;;;;;;;30.77;18.13;;;;;;;;;;5069365;28;20031;-58
2023/10/11 11:02:22;;;;;;;20.10;15.75;;;;;;;;;;5070586;28;20107;-59
2023/10/11 11:04:47;;;;;;;26.27;16.60;;;;;;;;;;5069408;28;20020;-58
2023/10/11 11:07:22;;;;;;;23.03;16.13;;;;;;;;;;5070689;28;20024;-58
2023/10/11 11:09:48;;;;;;;20.88;15.25;;;;;;;;;;5068931;28;20040;-58
2023/10/11 11:12:17;;;;;;;29.13;16.17;;;;;;;;;;5070788;28;20053;-58
2023/10/11 11:14:54;;;;;;;29.50;18.58;;;;;;;;;;5071055;28;20024;-58
2023/10/11 11:17:19;;;;;;;30.85;19.38;;;;;;;;;;5069352;28;20033;-59
2023/10/11 11:20:00;;;;;;;23.02;16.55;;;;;;;;;;5068939;28;20021;-59
2023/10/11 11:22:37;;;;;;;23.75;18.02;;;;;;;;;;5070360;28;20012;-59
2023/10/11 11:25:15;;;;;;;26.20;16.52;;;;;;;;;;5069258;28;20420;-59
2023/10/11 11:27:41;;;;;;;30.60;19.30;;;;;;;;;;5070431;28;20532;-59
2023/10/11 11:30:15;;;;;;;29.65;20.75;;;;;;;;;;5068771;28;20036;-63
2023/10/11 11:32:45;;;;;;;35.92;18.90;;;;;;;;;;5069639;28;20028;-66
2023/10/11 11:35:15;;;;;;;32.70;20.88;;;;;;;;;;5068783;28;20106;-59
2023/10/11 11:38:01;;;;;;;25.52;16.70;;;;;;;;;;5068340;28;20024;-59
2023/10/11 11:40:26;;;;;;;24.70;17.88;;;;;;;;;;5068738;28;20127;-64
2023/10/11 11:42:52;;;;;;;30.07;19.40;;;;;;;;;;5057909;28;20104;-59
2023/10/11 11:45:17;;;;;;;34.97;20.88;;;;;;;;;;5056951;28;20434;-60
2023/10/11 11:47:58;;;;;;;31.30;18.10;;;;;;;;;;5074137;28;20059;-60
2023/10/11 11:50:30;;;;;;;29.52;19.25;;;;;;;;;;5072506;28;20059;-59
2023/10/11 11:52:57;;;;;;;31.25;20.80;;;;;;;;;;5073748;28;20042;-59
2023/10/11 11:55:22;;;;;;;27.50;20.38;;;;;;;;;;5071288;28;20082;-59
2023/10/11 11:57:47;;;;;;;30.63;21.30;;;;;;;;;;5073977;28;20024;-60
2023/10/11 12:02:55;;;;;;;26.70;19.70;;;;;;;;;;5073935;28;20029;-59
2023/10/11 12:05:21;;;;;;;28.98;20.23;;;;;;;;;;5072827;28;20116;-59
2023/10/11 12:07:49;;;;;;;24.25;18.58;;;;;;;;;;5073589;28;20019;-59
2023/10/11 12:10:26;;;;;;;27.67;19.48;;;;;;;;;;5070975;28;20035;-59
2023/10/11 12:12:51;;;;;;;26.77;16.25;;;;;;;;;;5072066;28;20495;-59
2023/10/11 12:15:17;;;;;;;36.10;18.75;;;;;;;;;;5070529;28;20092;-59
2023/10/11 12:17:42;;;;;;;33.25;18.08;;;;;;;;;;5071858;28;20016;-59
2023/10/11 12:20:12;;;;;;;29.13;19.65;;;;;;;;;;5070453;28;20040;-59
2023/10/11 12:22:42;;;;;;;21.60;16.30;;;;;;;;;;5071770;28;20028;-59
2023/10/11 12:25:07;;;;;;;31.33;20.48;;;;;;;;;;5071944;28;20058;-59
2023/10/11 12:27:33;;;;;;;22.48;16.08;;;;;;;;;;5070850;28;20020;-59
2023/10/11 12:29:59;;;;;;;23.25;16.17;;;;;;;;;;5070516;28;20025;-59
2023/10/11 12:32:24;;;;;;;24.52;17.05;;;;;;;;;;5073701;28;20024;-69
2023/10/11 12:34:51;;;;;;;34.53;18.03;;;;;;;;;;5071316;28;20048;-59
2023/10/11 12:37:16;;;;;;;25.67;17.48;;;;;;;;;;5073268;28;20021;-58
2023/10/11 12:39:41;;;;;;;22.27;15.70;;;;;;;;;;5073510;28;20013;-60
2023/10/11 12:42:11;;;;;;;26.33;18.00;;;;;;;;;;5071742;28;20503;-60
2023/10/11 12:44:40;;;;;;;29.15;17.13;;;;;;;;;;5072844;28;20021;-59
2023/10/11 12:47:10;;;;;;;26.20;15.95;;;;;;;;;;5071543;28;20075;-59
2023/10/11 12:49:35;;;;;;;29.60;16.60;;;;;;;;;;5073671;28;20376;-59
2023/10/11 12:52:05;;;;;;;24.33;15.00;;;;;;;;;;5071092;28;20036;-59
2023/10/11 12:54:31;;;;;;;23.42;15.48;;;;;;;;;;5073067;28;20027;-59
2023/10/11 12:56:56;;;;;;;31.15;14.95;;;;;;;;;;5071614;28;20036;-59
2023/10/11 12:59:22;;;;;;;20.65;14.48;;;;;;;;;;5072741;28;20017;-59
2023/10/11 13:01:52;;;;;;;21.55;14.82;;;;;;;;;;5071485;28;20036;-59
2023/10/11 13:04:17;;;;;;;26.20;15.07;;;;;;;;;;5073344;28;20024;-59
2023/10/11 13:06:49;;;;;;;23.92;15.15;;;;;;;;;;5071020;28;20032;-59
2023/10/11 13:09:15;;;;;;;25.02;15.15;;;;;;;;;;5073163;28;20099;-60
2023/10/11 13:11:44;;;;;;;28.52;16.23;;;;;;;;;;5071738;28;20141;-59
2023/10/11 13:14:18;;;;;;;27.50;15.35;;;;;;;;;;5072398;28;20028;-59
2023/10/11 13:16:43;;;;;;;20.30;13.10;;;;;;;;;;5071267;28;20035;-59
2023/10/11 13:19:08;;;;;;;22.48;16.42;;;;;;;;;;5072973;28;20012;-67
2023/10/11 13:21:35;;;;;;;30.25;13.35;;;;;;;;;;5071012;28;20081;-59
2023/10/11 13:24:01;;;;;;;34.45;16.10;;;;;;;;;;5072694;28;20039;-70
2023/10/11 13:26:26;;;;;;;21.35;13.77;;;;;;;;;;5071246;28;20037;-59
2023/10/11 13:28:57;;;;;;;21.15;14.98;;;;;;;;;;5072210;28;20021;-60
2023/10/11 13:31:24;;;;;;;25.13;14.37;;;;;;;;;;5071328;28;20039;-59
2023/10/11 13:33:53;;;;;;;24.27;15.27;;;;;;;;;;5072038;28;21208;-59
2023/10/11 13:36:18;;;;;;;18.55;13.20;;;;;;;;;;5070742;28;20029;-59
2023/10/11 13:38:45;;;;;;;21.45;13.90;;;;;;;;;;5072231;28;20078;-59
2023/10/11 13:41:12;;;;;;;29.63;17.25;;;;;;;;;;5071082;28;20037;-59
2023/10/11 13:43:37;;;;;;;20.60;13.75;;;;;;;;;;5072210;28;20025;-59
2023/10/11 13:46:06;;;;;;;22.00;15.60;;;;;;;;;;5070758;28;20055;-59
2023/10/11 13:48:39;;;;;;;24.80;16.55;;;;;;;;;;5072166;28;20444;-59
2023/10/11 13:51:06;;;;;;;19.08;13.40;;;;;;;;;;5070312;28;20043;-59
2023/10/11 13:53:40;;;;;;;28.42;17.42;;;;;;;;;;5068841;28;20518;-58
2023/10/11 13:56:10;;;;;;;20.42;15.05;;;;;;;;;;5053538;28;20060;-58
2023/10/11 13:58:36;;;;;;;22.35;15.35;;;;;;;;;;5042941;28;20027;-58
2023/10/11 14:01:02;;;;;;;25.27;17.48;;;;;;;;;;5053700;28;20094;-59
2023/10/11 14:03:39;;;;;;;20.65;16.58;;;;;;;;;;5071972;28;20107;-59
2023/10/11 14:06:21;;;;;;;27.73;18.23;;;;;;;;;;5066951;28;20032;-59
2023/10/11 14:08:47;;;;;;;24.45;16.75;;;;;;;;;;5069977;28;20016;-58
2023/10/11 14:11:19;;;;;;;28.70;17.73;;;;;;;;;;5068233;28;20033;-59
2023/10/11 14:13:50;;;;;;;29.30;19.67;;;;;;;;;;5069434;28;20103;-59
2023/10/11 14:16:21;;;;;;;27.38;18.13;;;;;;;;;;5069009;28;20025;-59
2023/10/11 14:18:49;;;;;;;25.90;17.35;;;;;;;;;;5068058;28;20013;-59
2023/10/11 14:21:14;;;;;;;24.57;17.90;;;;;;;;;;5069341;28;20040;-59
2023/10/11 14:23:44;;;;;;;36.83;21.10;;;;;;;;;;5070892;28;20020;-59
2023/10/11 14:26:12;;;;;;;24.75;18.88;;;;;;;;;;5068857;28;20059;-59
2023/10/11 14:28:37;;;;;;;30.10;19.75;;;;;;;;;;5069572;28;20024;-59
2023/10/11 14:31:03;;;;;;;29.55;21.42;;;;;;;;;;5069020;28;20162;-59
2023/10/11 14:33:28;;;;;;;33.03;22.00;;;;;;;;;;5067612;28;20032;-59
2023/10/11 14:35:53;;;;;;;30.00;19.15;;;;;;;;;;5069056;28;20402;-58
2023/10/11 14:38:18;;;;;;;30.48;21.55;;;;;;;;;;5071309;28;20020;-59
2023/10/11 14:40:44;;;;;;;27.42;21.17;;;;;;;;;;5069126;28;20613;-59
2023/10/11 14:43:12;;;;;;;31.65;22.52;;;;;;;;;;5070779;28;20019;-59
2023/10/11 14:45:37;;;;;;;;;;;;;;;;;;5070197;28;20040;-59
2023/10/11 14:48:08;;;;;;;31.30;20.30;;;;;;;;;;5070714;28;19912;-57
2023/10/11 14:50:33;;;;;;;37.55;22.20;;;;;;;;;;5069201;28;20037;-58
2023/10/11 14:52:59;;;;;;;25.25;18.40;;;;;;;;;;5070307;28;20107;-62
2023/10/11 14:55:26;;;;;;;29.63;18.50;;;;;;;;;;5069487;28;20103;-58
2023/10/11 14:57:52;;;;;;;29.15;19.17;;;;;;;;;;5070368;28;20023;-60
2023/10/11 15:00:24;;;;;;;31.90;20.85;;;;;;;;;;5069555;28;20025;-58
2023/10/11 15:02:49;;;;;;;30.85;19.83;;;;;;;;;;5070453;28;20070;-58
2023/10/11 15:05:15;;;;;;;28.92;20.20;;;;;;;;;;5065212;28;20040;-58
2023/10/11 15:07:41;;;;;;;27.27;17.85;;;;;;;;;;5067932;28;20020;-58
2023/10/11 15:10:07;;;;;;;26.63;19.38;;;;;;;;;;5068251;28;20029;-58
2023/10/11 15:12:32;;;;;;;25.15;20.38;;;;;;;;;;5070145;28;20483;-58
2023/10/11 15:14:57;;;;;;;24.40;18.43;;;;;;;;;;5069105;28;20020;-58
2023/10/11 15:17:23;;;;;;;24.58;16.42;;;;;;;;;;5070642;28;20407;-58
2023/10/11 15:19:48;;;;;;;27.48;18.65;;;;;;;;;;5068675;28;20067;-58
2023/10/11 15:22:15;;;;;;;23.77;16.98;;;;;;;;;;5070749;28;20024;-58
2023/10/11 15:24:40;;;;;;;21.95;16.10;;;;;;;;;;5070932;28;20051;-58
2023/10/11 15:27:05;;;;;;;21.95;16.40;;;;;;;;;;5068484;28;20124;-57
2023/10/11 15:29:31;;;;;;;23.75;15.60;;;;;;;;;;5070646;28;20696;-60